Time;durP1;ratioP1;P1;durP2;ratioP2;P2;SDS_P1;SDS_P2;PMS_P1;PMS_P2;Temp;Humidity;BMP_temperature;BMP_pressure;BME280_temperature;BME280_humidity;BME280_pressure;Samples;Min_cycle;Max_cycle;Signal;HPM_P1;HPM_P2
2022/10/07 00:00:08;;;;;;;6.22;2.35;;;;;;;;;;5012716;28;20068;-69
2022/10/07 00:02:35;;;;;;;6.22;2.10;;;;;;;;;;5012856;28;20050;-69
2022/10/07 00:05:02;;;;;;;6.03;1.98;;;;;;;;;;5014224;28;20096;-68
2022/10/07 00:07:28;;;;;;;5.00;1.98;;;;;;;;;;5014056;28;20100;-68
2022/10/07 00:09:55;;;;;;;3.72;2.20;;;;;;;;;;5014453;28;20041;-68
2022/10/07 00:12:22;;;;;;;3.90;2.10;;;;;;;;;;5014180;28;20069;-68
2022/10/07 00:14:48;;;;;;;5.47;2.13;;;;;;;;;;5014068;28;20069;-69
2022/10/07 00:17:15;;;;;;;6.18;2.13;;;;;;;;;;5014795;28;20111;-68
2022/10/07 00:19:42;;;;;;;5.38;2.33;;;;;;;;;;5012679;28;20041;-69
2022/10/07 00:22:08;;;;;;;5.63;1.95;;;;;;;;;;5013798;28;20050;-68
2022/10/07 00:24:35;;;;;;;5.53;1.90;;;;;;;;;;5013999;28;20494;-68
2022/10/07 00:27:01;;;;;;;6.05;2.10;;;;;;;;;;5012491;28;20133;-68
2022/10/07 00:29:28;;;;;;;5.47;1.92;;;;;;;;;;4996143;28;20076;-69
2022/10/07 00:31:54;;;;;;;4.03;2.10;;;;;;;;;;4996011;28;20144;-69
2022/10/07 00:34:23;;;;;;;7.03;2.60;;;;;;;;;;5012402;28;20042;-69
2022/10/07 00:36:49;;;;;;;5.90;2.10;;;;;;;;;;5013915;28;20042;-69
2022/10/07 00:39:16;;;;;;;6.35;2.30;;;;;;;;;;5012385;28;20410;-69
2022/10/07 00:41:50;;;;;;;7.00;2.25;;;;;;;;;;5013548;28;20390;-68
2022/10/07 00:44:34;;;;;;;3.90;2.10;;;;;;;;;;4996084;28;20565;-69
2022/10/07 00:47:10;;;;;;;6.50;2.40;;;;;;;;;;5012330;28;20100;-68
2022/10/07 00:50:03;;;;;;;5.55;2.03;;;;;;;;;;5012265;28;20045;-68
2022/10/07 00:52:31;;;;;;;8.80;2.00;;;;;;;;;;5010307;28;20045;-68
2022/10/07 00:54:59;;;;;;;5.93;2.55;;;;;;;;;;4996512;28;20044;-69
2022/10/07 00:57:28;;;;;;;5.05;1.98;;;;;;;;;;5013609;28;20073;-68
2022/10/07 00:59:55;;;;;;;4.53;1.70;;;;;;;;;;5012257;28;20042;-68
2022/10/07 01:02:23;;;;;;;5.63;2.17;;;;;;;;;;5012154;28;20049;-68
2022/10/07 01:04:50;;;;;;;6.20;2.20;;;;;;;;;;5012185;28;20096;-68
2022/10/07 01:07:19;;;;;;;3.38;1.85;;;;;;;;;;5013228;28;20041;-68
2022/10/07 01:09:49;;;;;;;5.88;2.42;;;;;;;;;;4996615;28;20530;-69
2022/10/07 01:12:18;;;;;;;6.68;2.63;;;;;;;;;;5017314;28;20398;-68
2022/10/07 01:14:50;;;;;;;7.35;2.35;;;;;;;;;;5015835;28;20058;-68
2022/10/07 01:17:55;;;;;;;7.00;2.05;;;;;;;;;;5015821;28;20053;-68
2022/10/07 01:20:22;;;;;;;;;;;;;;;;;;4996083;28;20082;-69
2022/10/07 01:22:54;;;;;;;3.50;2.53;;;;;;;;;;4979184;28;19921;-68
2022/10/07 01:25:28;;;;;;;9.90;2.40;;;;;;;;;;4996763;28;20072;-68
2022/10/07 01:27:58;;;;;;;8.68;2.47;;;;;;;;;;5015692;28;20055;-68
2022/10/07 01:30:24;;;;;;;7.95;2.67;;;;;;;;;;5016468;28;20054;-69
2022/10/07 01:32:52;;;;;;;4.45;1.98;;;;;;;;;;5016948;28;20121;-69
2022/10/07 01:35:23;;;;;;;7.78;2.75;;;;;;;;;;5015471;28;20451;-68
2022/10/07 01:37:52;;;;;;;10.18;2.63;;;;;;;;;;5016632;28;20041;-69
2022/10/07 01:40:22;;;;;;;9.38;2.20;;;;;;;;;;5015181;28;20064;-69
2022/10/07 01:42:50;;;;;;;3.58;2.30;;;;;;;;;;5015111;28;20054;-68
2022/10/07 01:45:20;;;;;;;5.65;2.40;;;;;;;;;;5015052;28;20418;-68
2022/10/07 01:47:47;;;;;;;4.40;2.40;;;;;;;;;;5015302;28;20054;-69
2022/10/07 01:50:14;;;;;;;7.45;2.28;;;;;;;;;;5015227;28;20104;-68
2022/10/07 01:52:57;;;;;;;4.32;2.40;;;;;;;;;;5015146;28;20422;-68
2022/10/07 01:55:42;;;;;;;7.20;2.40;;;;;;;;;;5015759;28;20072;-68
2022/10/07 01:58:32;;;;;;;6.45;2.90;;;;;;;;;;5015497;28;20410;-69
2022/10/07 02:01:07;;;;;;;11.15;6.13;;;;;;;;;;5012869;28;20464;-69
2022/10/07 02:03:53;;;;;;;8.10;2.72;;;;;;;;;;5017124;28;20208;-69
2022/10/07 02:06:25;;;;;;;3.72;2.17;;;;;;;;;;5016141;28;20490;-68
2022/10/07 02:08:54;;;;;;;3.83;2.03;;;;;;;;;;5015060;28;20042;-69
2022/10/07 02:11:22;;;;;;;5.32;2.70;;;;;;;;;;5017108;28;20041;-70
2022/10/07 02:13:54;;;;;;;5.50;2.30;;;;;;;;;;5015104;28;20557;-69
2022/10/07 02:16:31;;;;;;;5.82;2.58;;;;;;;;;;4998772;28;20418;-69
2022/10/07 02:19:00;;;;;;;5.95;2.22;;;;;;;;;;5014793;28;20074;-70
2022/10/07 02:21:28;;;;;;;11.20;2.80;;;;;;;;;;5015440;28;20096;-68
2022/10/07 02:23:56;;;;;;;8.45;2.60;;;;;;;;;;5014414;28;20157;-69
2022/10/07 02:26:26;;;;;;;6.30;2.00;;;;;;;;;;5024675;23;20096;-61
2022/10/07 02:28:55;;;;;;;2.95;2.10;;;;;;;;;;5000385;28;20042;-62
2022/10/07 02:31:24;;;;;;;3.88;2.17;;;;;;;;;;5016584;28;20413;-62
2022/10/07 02:33:52;;;;;;;5.93;2.40;;;;;;;;;;5017732;28;20045;-62
2022/10/07 02:36:23;;;;;;;6.72;2.17;;;;;;;;;;5016810;28;20121;-62
2022/10/07 02:38:51;;;;;;;8.02;3.33;;;;;;;;;;5014649;28;20578;-62
2022/10/07 02:41:33;;;;;;;6.22;2.05;;;;;;;;;;5015071;28;20494;-62
2022/10/07 02:44:05;;;;;;;7.47;2.25;;;;;;;;;;5014566;28;20038;-62
2022/10/07 02:46:34;;;;;;;4.80;2.25;;;;;;;;;;5015790;28;20401;-61
2022/10/07 02:49:03;;;;;;;4.82;1.70;;;;;;;;;;5015614;28;20053;-61
2022/10/07 02:51:45;;;;;;;7.18;2.00;;;;;;;;;;5015331;28;20112;-60
2022/10/07 02:54:15;;;;;;;9.77;2.00;;;;;;;;;;5014420;28;20042;-60
2022/10/07 02:56:43;;;;;;;3.80;1.88;;;;;;;;;;4997845;28;20136;-61
2022/10/07 02:59:11;;;;;;;5.68;1.95;;;;;;;;;;5014969;28;20050;-62
2022/10/07 03:01:40;;;;;;;6.97;2.42;;;;;;;;;;5014815;28;20057;-61
2022/10/07 03:04:07;;;;;;;2.78;1.80;;;;;;;;;;5015921;28;20046;-60
2022/10/07 03:06:34;;;;;;;2.97;1.80;;;;;;;;;;5014933;28;20422;-60
2022/10/07 03:09:01;;;;;;;11.35;2.08;;;;;;;;;;5014955;28;20081;-59
2022/10/07 03:11:29;;;;;;;7.00;1.92;;;;;;;;;;5014907;28;20140;-59
2022/10/07 03:13:56;;;;;;;10.82;2.25;;;;;;;;;;5014910;28;20528;-59
2022/10/07 03:16:22;;;;;;;8.30;1.80;;;;;;;;;;5014717;28;20454;-59
2022/10/07 03:18:50;;;;;;;5.43;2.67;;;;;;;;;;5014253;28;20050;-59
2022/10/07 03:21:24;;;;;;;4.03;2.38;;;;;;;;;;5014417;28;20044;-60
2022/10/07 03:23:53;;;;;;;6.47;2.33;;;;;;;;;;5014794;28;20068;-59
2022/10/07 03:26:23;;;;;;;10.38;1.85;;;;;;;;;;4998983;28;20042;-60
2022/10/07 03:28:50;;;;;;;8.25;2.00;;;;;;;;;;5015591;28;20046;-60
2022/10/07 03:31:18;;;;;;;8.02;1.92;;;;;;;;;;5015314;28;20073;-60
2022/10/07 03:33:47;;;;;;;5.78;1.80;;;;;;;;;;5014188;28;20126;-60
2022/10/07 03:36:15;;;;;;;5.55;1.95;;;;;;;;;;5014477;28;20072;-60
2022/10/07 03:38:44;;;;;;;5.25;2.03;;;;;;;;;;5014531;28;20045;-60
2022/10/07 03:41:12;;;;;;;3.50;1.85;;;;;;;;;;5014485;28;20046;-60
2022/10/07 03:43:38;;;;;;;4.70;2.00;;;;;;;;;;5014051;28;20045;-60
2022/10/07 03:46:07;;;;;;;5.03;1.63;;;;;;;;;;5013934;28;20076;-60
2022/10/07 03:48:35;;;;;;;12.57;2.70;;;;;;;;;;5013348;28;20051;-60
2022/10/07 03:51:02;;;;;;;5.20;1.95;;;;;;;;;;5012862;28;20046;-60
2022/10/07 03:53:31;;;;;;;8.73;2.15;;;;;;;;;;5012859;28;20573;-60
2022/10/07 03:56:00;;;;;;;6.32;2.13;;;;;;;;;;5013448;28;20046;-60
2022/10/07 03:58:28;;;;;;;3.30;2.20;;;;;;;;;;5013084;28;20042;-62
2022/10/07 04:03:35;;;;;;;5.93;2.30;;;;;;;;;;4973572;28;20586;-60
2022/10/07 04:06:02;;;;;;;5.05;2.13;;;;;;;;;;4958325;28;20407;-60
2022/10/07 04:08:32;;;;;;;3.03;1.80;;;;;;;;;;4973613;28;20480;-60
2022/10/07 04:11:00;;;;;;;4.70;2.22;;;;;;;;;;4957490;28;20060;-60
2022/10/07 04:13:28;;;;;;;2.92;1.70;;;;;;;;;;4957324;28;20047;-60
2022/10/07 04:15:55;;;;;;;8.15;2.20;;;;;;;;;;4958521;28;20494;-62
2022/10/07 04:18:22;;;;;;;3.83;1.98;;;;;;;;;;4957366;28;20043;-63
2022/10/07 04:20:51;;;;;;;4.10;2.25;;;;;;;;;;4957308;28;20046;-63
2022/10/07 04:23:17;;;;;;;6.75;2.72;;;;;;;;;;4975122;28;20054;-62
2022/10/07 04:25:45;;;;;;;4.43;2.15;;;;;;;;;;4957486;28;20046;-63
2022/10/07 04:28:20;;;;;;;9.30;2.65;;;;;;;;;;4957489;28;20133;-62
2022/10/07 04:30:52;;;;;;;4.18;2.63;;;;;;;;;;4957953;28;20050;-63
2022/10/07 04:33:24;;;;;;;8.57;2.60;;;;;;;;;;4957668;28;20058;-62
2022/10/07 04:35:53;;;;;;;7.35;2.30;;;;;;;;;;4957224;28;20138;-64
2022/10/07 04:38:20;;;;;;;4.43;2.45;;;;;;;;;;4957119;28;20054;-62
2022/10/07 04:40:54;;;;;;;7.67;2.67;;;;;;;;;;4957219;28;20094;-63
2022/10/07 04:43:22;;;;;;;5.30;2.58;;;;;;;;;;4957643;28;20061;-62
2022/10/07 04:46:03;;;;;;;3.88;2.40;;;;;;;;;;4961128;28;20051;-63
2022/10/07 04:48:32;;;;;;;6.05;2.97;;;;;;;;;;4961026;28;20042;-64
2022/10/07 04:51:03;;;;;;;6.28;3.15;;;;;;;;;;4945375;28;20074;-62
2022/10/07 04:53:30;;;;;;;7.53;2.90;;;;;;;;;;4960880;28;20043;-62
2022/10/07 04:55:57;;;;;;;8.68;3.70;;;;;;;;;;4945102;28;20134;-63
2022/10/07 04:58:23;;;;;;;4.88;3.38;;;;;;;;;;4960962;28;20043;-63
2022/10/07 05:00:51;;;;;;;6.32;3.47;;;;;;;;;;4961437;28;20094;-63
2022/10/07 05:03:20;;;;;;;4.00;2.60;;;;;;;;;;4961472;28;20101;-64
2022/10/07 05:05:49;;;;;;;6.00;3.30;;;;;;;;;;4960914;28;20499;-64
2022/10/07 05:08:17;;;;;;;7.15;3.03;;;;;;;;;;4961116;28;20138;-63
2022/10/07 05:10:44;;;;;;;6.82;3.60;;;;;;;;;;4960726;28;20538;-64
2022/10/07 05:13:13;;;;;;;12.38;4.00;;;;;;;;;;4960487;28;20039;-63
2022/10/07 05:15:51;;;;;;;5.60;3.05;;;;;;;;;;4960649;28;20057;-63
2022/10/07 05:18:18;;;;;;;5.78;3.63;;;;;;;;;;4960610;28;20089;-63
2022/10/07 05:20:47;;;;;;;6.82;2.97;;;;;;;;;;4961141;28;20189;-62
2022/10/07 05:23:15;;;;;;;7.95;2.90;;;;;;;;;;4944862;28;20101;-64
2022/10/07 05:25:43;;;;;;;5.03;2.88;;;;;;;;;;4960493;28;20047;-63
2022/10/07 05:28:10;;;;;;;7.50;2.75;;;;;;;;;;4944718;28;20049;-63
2022/10/07 05:30:38;;;;;;;6.82;2.50;;;;;;;;;;4960370;28;20051;-63
2022/10/07 05:33:05;;;;;;;6.90;2.25;;;;;;;;;;4960379;28;20047;-63
2022/10/07 05:35:32;;;;;;;9.43;3.30;;;;;;;;;;4977921;28;20061;-63
2022/10/07 05:37:59;;;;;;;6.97;3.20;;;;;;;;;;4960571;28;20046;-63
2022/10/07 05:40:26;;;;;;;5.47;2.50;;;;;;;;;;4960117;28;20039;-64
2022/10/07 05:42:53;;;;;;;5.65;2.50;;;;;;;;;;4960359;28;20462;-62
2022/10/07 05:45:21;;;;;;;9.15;2.88;;;;;;;;;;4977428;28;20125;-63
2022/10/07 05:47:48;;;;;;;7.85;4.18;;;;;;;;;;4960059;28;20518;-63
2022/10/07 05:50:15;;;;;;;9.55;2.97;;;;;;;;;;4961049;28;20051;-63
2022/10/07 05:52:44;;;;;;;9.80;2.80;;;;;;;;;;4960001;28;20137;-63
2022/10/07 05:55:11;;;;;;;8.25;2.42;;;;;;;;;;4959582;28;20422;-63
2022/10/07 05:57:40;;;;;;;7.40;2.40;;;;;;;;;;4959850;28;20038;-63
2022/10/07 06:00:07;;;;;;;6.47;2.95;;;;;;;;;;4959907;28;20046;-63
2022/10/07 06:02:38;;;;;;;12.45;3.65;;;;;;;;;;4960650;28;20503;-63
2022/10/07 06:05:06;;;;;;;5.90;2.40;;;;;;;;;;4960011;28;20503;-63
2022/10/07 06:07:33;;;;;;;9.50;2.30;;;;;;;;;;4977099;28;20043;-62
2022/10/07 06:15:33;;;;;;;4.78;3.13;;;;;;;;;;4960206;28;20133;-63
2022/10/07 06:18:02;;;;;;;9.23;2.65;;;;;;;;;;4959663;28;20081;-63
2022/10/07 06:20:28;;;;;;;9.38;3.33;;;;;;;;;;4959465;28;20043;-62
2022/10/07 06:22:57;;;;;;;6.28;3.00;;;;;;;;;;4959812;28;20410;-63
2022/10/07 06:25:25;;;;;;;8.45;3.90;;;;;;;;;;4959785;28;20042;-63
2022/10/07 06:27:53;;;;;;;5.25;2.88;;;;;;;;;;4977013;28;20042;-62
2022/10/07 06:30:22;;;;;;;9.25;3.03;;;;;;;;;;4960177;28;20057;-62
2022/10/07 06:32:48;;;;;;;10.48;4.22;;;;;;;;;;4958996;28;20050;-62
2022/10/07 06:35:15;;;;;;;5.88;2.97;;;;;;;;;;4944244;28;20047;-63
2022/10/07 06:37:42;;;;;;;11.43;4.15;;;;;;;;;;4959375;28;20046;-62
2022/10/07 06:40:10;;;;;;;4.88;2.70;;;;;;;;;;4959156;28;20081;-62
2022/10/07 06:42:37;;;;;;;6.82;3.45;;;;;;;;;;4958867;28;20046;-63
2022/10/07 06:45:31;;;;;;;9.48;4.03;;;;;;;;;;4959009;28;20512;-63
2022/10/07 06:47:59;;;;;;;12.93;4.50;;;;;;;;;;4959773;28;20051;-63
2022/10/07 06:50:26;;;;;;;12.10;4.35;;;;;;;;;;4943275;28;20141;-63
2022/10/07 06:52:53;;;;;;;7.95;4.20;;;;;;;;;;4958645;28;20049;-64
2022/10/07 06:55:20;;;;;;;8.95;4.38;;;;;;;;;;4958896;28;20566;-63
2022/10/07 06:57:46;;;;;;;8.43;3.97;;;;;;;;;;4959413;28;20043;-63
2022/10/07 07:00:16;;;;;;;14.02;4.22;;;;;;;;;;4958962;28;20072;-63
2022/10/07 07:02:45;;;;;;;6.60;3.10;;;;;;;;;;4958798;28;20054;-64
2022/10/07 07:05:13;;;;;;;6.63;3.63;;;;;;;;;;4958563;28;20066;-64
2022/10/07 07:07:40;;;;;;;4.70;3.10;;;;;;;;;;4942239;28;20396;-64
2022/10/07 07:10:07;;;;;;;7.07;3.00;;;;;;;;;;4942708;28;20076;-63
2022/10/07 07:12:36;;;;;;;8.43;3.17;;;;;;;;;;4958905;28;20082;-62
2022/10/07 07:15:03;;;;;;;6.97;4.00;;;;;;;;;;4958412;28;20047;-63
2022/10/07 07:17:31;;;;;;;15.63;4.30;;;;;;;;;;4958274;28;20043;-63
2022/10/07 07:19:58;;;;;;;7.60;3.80;;;;;;;;;;4975552;28;20035;-64
2022/10/07 07:22:24;;;;;;;7.68;4.18;;;;;;;;;;4958125;28;20042;-63
2022/10/07 07:24:51;;;;;;;6.47;3.75;;;;;;;;;;4975540;28;20043;-63
2022/10/07 07:27:18;;;;;;;8.25;4.43;;;;;;;;;;4958491;28;20129;-63
2022/10/07 07:29:44;;;;;;;11.13;3.80;;;;;;;;;;4958135;28;20050;-64
2022/10/07 07:32:11;;;;;;;10.27;3.95;;;;;;;;;;4975282;28;20038;-63
2022/10/07 07:34:41;;;;;;;7.78;3.58;;;;;;;;;;4958531;28;20073;-63
2022/10/07 07:37:12;;;;;;;12.88;4.93;;;;;;;;;;4976033;28;20467;-64
2022/10/07 07:39:43;;;;;;;14.18;4.60;;;;;;;;;;4958338;28;20051;-64
2022/10/07 07:42:13;;;;;;;10.65;5.28;;;;;;;;;;4957807;28;20053;-63
2022/10/07 07:44:39;;;;;;;10.68;4.30;;;;;;;;;;4958365;28;20047;-63
2022/10/07 07:47:09;;;;;;;7.07;4.20;;;;;;;;;;4959098;28;20430;-63
2022/10/07 07:49:37;;;;;;;8.20;4.30;;;;;;;;;;4957884;28;20097;-64
2022/10/07 07:52:06;;;;;;;8.73;4.28;;;;;;;;;;4958183;28;20462;-64
2022/10/07 07:54:40;;;;;;;12.35;4.45;;;;;;;;;;4958244;28;20411;-64
2022/10/07 07:57:07;;;;;;;7.43;3.78;;;;;;;;;;4958025;28;20097;-63
2022/10/07 07:59:36;;;;;;;13.38;6.43;;;;;;;;;;4957601;28;20446;-63
2022/10/07 08:02:03;;;;;;;11.63;5.18;;;;;;;;;;4957432;28;20047;-63
2022/10/07 08:04:30;;;;;;;14.15;6.95;;;;;;;;;;4957527;28;20051;-63
2022/10/07 08:06:57;;;;;;;11.07;4.63;;;;;;;;;;4957870;28;20419;-64
2022/10/07 08:09:24;;;;;;;9.63;4.50;;;;;;;;;;4958261;28;20046;-61
2022/10/07 08:11:52;;;;;;;10.18;4.22;;;;;;;;;;4975717;28;20106;-63
2022/10/07 08:14:18;;;;;;;9.40;4.30;;;;;;;;;;4959032;28;20062;-63
2022/10/07 08:16:48;;;;;;;11.00;4.57;;;;;;;;;;4958156;28;20447;-63
2022/10/07 08:19:15;;;;;;;8.23;4.15;;;;;;;;;;4957839;28;20380;-62
2022/10/07 08:21:42;;;;;;;13.43;4.60;;;;;;;;;;4963863;28;20078;-63
2022/10/07 08:24:13;;;;;;;12.27;4.63;;;;;;;;;;4971542;28;20074;-63
2022/10/07 08:26:40;;;;;;;11.32;4.93;;;;;;;;;;4972358;28;20047;-63
2022/10/07 08:29:12;;;;;;;11.45;3.95;;;;;;;;;;4971769;28;20082;-63
2022/10/07 08:31:41;;;;;;;10.52;3.90;;;;;;;;;;4967676;28;20047;-63
2022/10/07 08:34:09;;;;;;;11.68;4.38;;;;;;;;;;4977430;28;20042;-62
2022/10/07 08:36:36;;;;;;;8.25;3.97;;;;;;;;;;4979286;28;20113;-63
2022/10/07 08:39:03;;;;;;;12.80;3.97;;;;;;;;;;4981567;28;20121;-63
2022/10/07 08:41:32;;;;;;;11.00;3.92;;;;;;;;;;4978408;28;20472;-63
2022/10/07 08:44:06;;;;;;;10.35;3.88;;;;;;;;;;4977111;28;20046;-63
2022/10/07 08:46:36;;;;;;;9.98;3.97;;;;;;;;;;4974967;28;20113;-63
2022/10/07 08:49:12;;;;;;;13.18;3.75;;;;;;;;;;4941498;28;20050;-63
2022/10/07 08:51:51;;;;;;;9.77;3.78;;;;;;;;;;4974844;28;20050;-62
2022/10/07 08:54:23;;;;;;;7.78;3.42;;;;;;;;;;4974695;28;20428;-63
2022/10/07 08:56:50;;;;;;;10.60;4.00;;;;;;;;;;4974432;28;20496;-63
2022/10/07 08:59:22;;;;;;;9.95;3.60;;;;;;;;;;4974504;28;20098;-63
2022/10/07 09:01:55;;;;;;;10.27;3.30;;;;;;;;;;4974538;28;20039;-63
2022/10/07 09:04:38;;;;;;;7.70;3.10;;;;;;;;;;4974878;28;20055;-63
2022/10/07 09:07:08;;;;;;;10.70;4.57;;;;;;;;;;4957512;28;20043;-62
2022/10/07 09:09:41;;;;;;;6.32;3.55;;;;;;;;;;4975198;28;20051;-62
2022/10/07 09:12:10;;;;;;;10.40;3.42;;;;;;;;;;4974246;28;20542;-62
2022/10/07 09:14:38;;;;;;;7.80;3.60;;;;;;;;;;4974144;28;20043;-63
2022/10/07 09:17:11;;;;;;;5.93;2.88;;;;;;;;;;4974389;28;20119;-64
2022/10/07 09:19:44;;;;;;;10.10;3.05;;;;;;;;;;4957025;28;20057;-63
2022/10/07 09:22:15;;;;;;;6.80;2.80;;;;;;;;;;4974565;28;20049;-63
2022/10/07 09:24:41;;;;;;;9.35;2.60;;;;;;;;;;4974353;28;20050;-63
2022/10/07 09:27:12;;;;;;;8.18;3.00;;;;;;;;;;4974656;28;20077;-64
2022/10/07 09:29:38;;;;;;;6.90;3.03;;;;;;;;;;4957185;28;20082;-64
2022/10/07 09:32:08;;;;;;;8.55;3.22;;;;;;;;;;4978655;28;20411;-64
2022/10/07 09:34:35;;;;;;;6.65;2.85;;;;;;;;;;4979530;28;20042;-65
2022/10/07 09:37:07;;;;;;;6.35;2.63;;;;;;;;;;4962063;28;20053;-64
2022/10/07 09:39:34;;;;;;;6.15;2.75;;;;;;;;;;4979156;28;20043;-63
2022/10/07 09:42:02;;;;;;;8.45;2.95;;;;;;;;;;4960667;28;20109;-64
2022/10/07 09:44:29;;;;;;;7.80;3.65;;;;;;;;;;4977898;28;20043;-63
2022/10/07 09:47:10;;;;;;;13.05;3.67;;;;;;;;;;4977462;28;20510;-60
2022/10/07 09:49:39;;;;;;;10.25;3.20;;;;;;;;;;4977858;28;20047;-60
2022/10/07 09:52:14;;;;;;;7.18;3.05;;;;;;;;;;4977767;28;20050;-62
2022/10/07 09:54:42;;;;;;;6.88;3.22;;;;;;;;;;4960595;28;20101;-64
2022/10/07 09:57:22;;;;;;;7.43;3.15;;;;;;;;;;4977430;28;20159;-64
2022/10/07 09:59:48;;;;;;;8.88;3.35;;;;;;;;;;4978139;28;20038;-65
2022/10/07 10:02:21;;;;;;;9.50;3.40;;;;;;;;;;4961776;28;20047;-63
2022/10/07 10:04:49;;;;;;;11.02;2.97;;;;;;;;;;4981132;28;20042;-63
2022/10/07 10:07:15;;;;;;;10.30;3.40;;;;;;;;;;4962942;28;20047;-64
2022/10/07 10:10:02;;;;;;;7.57;2.80;;;;;;;;;;4961219;28;20507;-63
2022/10/07 10:12:33;;;;;;;8.23;2.85;;;;;;;;;;4960364;28;20043;-62
2022/10/07 10:15:15;;;;;;;10.45;4.20;;;;;;;;;;4978238;28;20487;-64
2022/10/07 10:17:41;;;;;;;5.88;2.70;;;;;;;;;;4983321;28;20167;-63
2022/10/07 10:20:17;;;;;;;9.25;3.13;;;;;;;;;;4982261;28;20551;-62
2022/10/07 10:22:43;;;;;;;7.30;3.15;;;;;;;;;;4982415;28;20054;-63
2022/10/07 10:28:00;;;;;;;7.60;3.28;;;;;;;;;;4982191;28;20073;-64
2022/10/07 10:30:29;;;;;;;11.73;3.17;;;;;;;;;;4982518;28;20101;-62
2022/10/07 10:33:17;;;;;;;9.90;3.00;;;;;;;;;;4964850;28;20491;-62
2022/10/07 10:36:13;;;;;;;4.97;2.72;;;;;;;;;;4982189;28;20043;-63
2022/10/07 10:38:49;;;;;;;10.88;2.90;;;;;;;;;;4977765;28;20130;-63
2022/10/07 10:41:22;;;;;;;7.75;2.60;;;;;;;;;;4964781;28;20043;-63
2022/10/07 10:43:52;;;;;;;9.88;2.78;;;;;;;;;;4964734;28;20059;-63
2022/10/07 10:46:28;;;;;;;5.40;2.47;;;;;;;;;;4982525;28;20098;-62
2022/10/07 10:49:24;;;;;;;7.07;2.47;;;;;;;;;;4981967;28;20113;-64
2022/10/07 10:52:14;;;;;;;8.48;2.80;;;;;;;;;;4963660;28;20047;-62
2022/10/07 10:54:46;;;;;;;8.73;2.17;;;;;;;;;;4981017;28;20043;-64
2022/10/07 10:57:31;;;;;;;6.80;2.28;;;;;;;;;;4980516;28;20089;-62
2022/10/07 11:00:07;;;;;;;8.02;2.38;;;;;;;;;;4981334;28;20042;-63
2022/10/07 11:02:36;;;;;;;9.52;2.83;;;;;;;;;;4980439;28;20046;-63
2022/10/07 11:05:16;;;;;;;7.55;2.35;;;;;;;;;;4963345;28;20098;-63
2022/10/07 11:07:45;;;;;;;10.65;2.65;;;;;;;;;;4962892;28;20387;-63
2022/10/07 11:10:20;;;;;;;7.43;2.38;;;;;;;;;;4980874;28;20542;-63
2022/10/07 11:12:57;;;;;;;6.10;2.25;;;;;;;;;;4980513;28;20546;-63
2022/10/07 11:15:29;;;;;;;7.50;2.22;;;;;;;;;;4981024;28;20135;-63
2022/10/07 11:17:58;;;;;;;4.88;2.25;;;;;;;;;;4980830;28;20043;-64
2022/10/07 11:20:38;;;;;;;8.82;3.70;;;;;;;;;;4980124;28;20042;-62
2022/10/07 11:23:09;;;;;;;6.38;2.30;;;;;;;;;;4963557;28;20103;-63
2022/10/07 11:25:41;;;;;;;6.95;2.53;;;;;;;;;;4979330;28;20057;-63
2022/10/07 11:28:22;;;;;;;10.85;2.80;;;;;;;;;;4959892;28;20050;-62
2022/10/07 11:31:01;;;;;;;6.82;2.15;;;;;;;;;;4979356;28;20058;-63
2022/10/07 11:33:36;;;;;;;6.72;1.85;;;;;;;;;;4960682;28;20074;-63
2022/10/07 11:36:22;;;;;;;7.97;2.45;;;;;;;;;;4977261;28;20046;-63
2022/10/07 11:38:51;;;;;;;6.38;1.80;;;;;;;;;;4976737;28;20053;-63
2022/10/07 11:41:24;;;;;;;5.57;2.00;;;;;;;;;;4976656;28;20039;-63
2022/10/07 11:43:57;;;;;;;5.10;2.10;;;;;;;;;;4976815;28;20047;-63
2022/10/07 11:46:30;;;;;;;5.30;2.40;;;;;;;;;;4976683;28;20046;-64
2022/10/07 11:49:09;;;;;;;5.43;1.90;;;;;;;;;;4975910;28;20069;-63
2022/10/07 11:51:54;;;;;;;3.22;1.90;;;;;;;;;;4975414;28;20061;-63
2022/10/07 11:54:22;;;;;;;6.18;2.42;;;;;;;;;;4957527;28;20487;-64
2022/10/07 11:56:52;;;;;;;6.20;1.92;;;;;;;;;;4975507;28;20057;-62
2022/10/07 11:59:25;;;;;;;4.25;1.80;;;;;;;;;;4958301;28;20071;-63
2022/10/07 12:01:52;;;;;;;5.93;2.47;;;;;;;;;;4957572;28;20082;-64
2022/10/07 12:04:23;;;;;;;8.43;2.45;;;;;;;;;;4975199;28;20051;-63
2022/10/07 12:07:09;;;;;;;6.15;2.33;;;;;;;;;;4975448;28;20047;-63
2022/10/07 12:09:51;;;;;;;5.22;1.70;;;;;;;;;;4958655;28;20051;-63
2022/10/07 12:12:21;;;;;;;5.05;1.85;;;;;;;;;;4958095;28;20518;-63
2022/10/07 12:14:57;;;;;;;7.53;2.20;;;;;;;;;;4974838;28;20047;-64
2022/10/07 12:17:26;;;;;;;7.93;2.03;;;;;;;;;;4975332;28;20043;-64
2022/10/07 12:20:11;;;;;;;5.07;1.75;;;;;;;;;;4957755;28;20066;-62
2022/10/07 12:22:37;;;;;;;6.28;1.85;;;;;;;;;;4975099;28;20045;-64
2022/10/07 12:25:24;;;;;;;9.45;2.50;;;;;;;;;;4959170;28;20415;-63
2022/10/07 12:27:50;;;;;;;9.55;2.58;;;;;;;;;;4976721;28;20050;-63
2022/10/07 12:30:37;;;;;;;8.10;2.00;;;;;;;;;;4976450;28;20412;-63
2022/10/07 12:33:13;;;;;;;5.53;1.58;;;;;;;;;;4976152;28;20057;-63
2022/10/07 12:35:40;;;;;;;5.85;1.95;;;;;;;;;;4975353;28;20039;-63
2022/10/07 12:38:16;;;;;;;7.50;2.20;;;;;;;;;;4976077;28;20046;-63
2022/10/07 12:40:45;;;;;;;7.60;1.92;;;;;;;;;;4958127;28;20118;-63
2022/10/07 12:43:14;;;;;;;6.68;2.15;;;;;;;;;;4975524;28;20047;-63
2022/10/07 12:45:42;;;;;;;10.23;1.95;;;;;;;;;;4975593;28;20117;-64
2022/10/07 12:48:13;;;;;;;6.18;2.17;;;;;;;;;;4974954;28;20039;-63
2022/10/07 12:50:41;;;;;;;4.15;1.85;;;;;;;;;;4975443;28;20055;-63
2022/10/07 12:53:09;;;;;;;5.78;1.65;;;;;;;;;;4974769;28;20051;-63
2022/10/07 12:55:37;;;;;;;5.20;1.73;;;;;;;;;;4975120;28;20373;-63
2022/10/07 13:01:21;;;;;;;5.07;1.90;;;;;;;;;;4960204;28;20068;-64
2022/10/07 13:04:00;;;;;;;4.72;1.95;;;;;;;;;;4975328;28;20039;-63
2022/10/07 13:06:29;;;;;;;5.35;1.88;;;;;;;;;;4978662;28;20043;-63
2022/10/07 13:09:15;;;;;;;7.50;2.00;;;;;;;;;;4978890;28;20125;-63
2022/10/07 13:11:56;;;;;;;7.50;2.97;;;;;;;;;;4962231;28;20050;-62
2022/10/07 13:14:30;;;;;;;7.45;2.70;;;;;;;;;;4986409;28;20054;-63
2022/10/07 13:17:11;;;;;;;5.30;1.83;;;;;;;;;;4988282;28;20051;-63
2022/10/07 13:19:38;;;;;;;6.53;2.20;;;;;;;;;;4970627;28;20047;-63
2022/10/07 13:22:15;;;;;;;8.00;3.00;;;;;;;;;;4987171;28;20047;-63
2022/10/07 13:24:45;;;;;;;3.92;2.00;;;;;;;;;;4993257;28;20057;-63
2022/10/07 13:27:40;;;;;;;7.22;2.17;;;;;;;;;;4993774;28;20050;-63
2022/10/07 13:30:27;;;;;;;4.25;1.55;;;;;;;;;;4970957;28;20462;-63
2022/10/07 13:32:53;;;;;;;5.80;2.00;;;;;;;;;;4971035;28;20414;-63
2022/10/07 13:35:30;;;;;;;5.55;1.75;;;;;;;;;;4971289;28;20039;-62
2022/10/07 13:38:01;;;;;;;6.55;2.08;;;;;;;;;;4989146;28;20043;-63
2022/10/07 13:40:34;;;;;;;6.15;2.13;;;;;;;;;;4981221;28;20050;-63
2022/10/07 13:43:01;;;;;;;5.45;1.80;;;;;;;;;;4978966;28;20505;-62
2022/10/07 13:45:28;;;;;;;5.63;2.45;;;;;;;;;;4979590;28;20093;-63
2022/10/07 13:47:55;;;;;;;5.75;1.70;;;;;;;;;;4962535;28;20050;-63
2022/10/07 13:50:25;;;;;;;5.88;1.98;;;;;;;;;;4979471;28;20042;-63
2022/10/07 13:52:52;;;;;;;7.88;2.17;;;;;;;;;;4980099;28;20047;-64
2022/10/07 13:55:24;;;;;;;5.18;2.13;;;;;;;;;;4979699;28;20476;-63
2022/10/07 13:57:51;;;;;;;5.05;1.88;;;;;;;;;;4979255;28;20078;-63
2022/10/07 14:00:18;;;;;;;4.68;1.88;;;;;;;;;;4977367;28;20487;-60
2022/10/07 14:02:45;;;;;;;5.80;2.00;;;;;;;;;;4977266;28;20492;-60
2022/10/07 14:05:19;;;;;;;4.57;2.10;;;;;;;;;;4977622;28;20047;-60
2022/10/07 14:07:51;;;;;;;6.22;2.05;;;;;;;;;;4959764;28;20051;-60
2022/10/07 14:10:18;;;;;;;6.72;2.53;;;;;;;;;;4977229;28;20051;-60
2022/10/07 14:12:49;;;;;;;5.53;1.98;;;;;;;;;;4976998;28;20093;-60
2022/10/07 14:15:20;;;;;;;2.95;1.83;;;;;;;;;;4959597;28;20054;-60
2022/10/07 14:17:48;;;;;;;5.75;1.70;;;;;;;;;;4976447;28;20043;-60
2022/10/07 14:20:19;;;;;;;6.97;2.00;;;;;;;;;;4976941;28;20038;-60
2022/10/07 14:22:50;;;;;;;3.42;1.98;;;;;;;;;;4977105;28;20488;-60
2022/10/07 14:25:18;;;;;;;4.00;1.88;;;;;;;;;;4959920;28;20054;-59
2022/10/07 14:27:44;;;;;;;4.22;1.75;;;;;;;;;;4976689;28;20042;-61
2022/10/07 14:30:24;;;;;;;6.65;2.15;;;;;;;;;;4976686;28;20098;-60
2022/10/07 14:36:07;;;;;;;6.82;1.80;;;;;;;;;;4977062;28;20039;-60
2022/10/07 14:38:33;;;;;;;6.00;2.38;;;;;;;;;;4977194;28;20043;-60
2022/10/07 14:40:59;;;;;;;3.67;1.88;;;;;;;;;;4976652;28;20045;-60
2022/10/07 14:43:28;;;;;;;6.45;2.58;;;;;;;;;;4976329;28;20050;-60
2022/10/07 14:45:55;;;;;;;6.15;2.05;;;;;;;;;;4976605;28;20050;-60
2022/10/07 14:48:21;;;;;;;4.53;1.92;;;;;;;;;;4959417;28;20054;-60
2022/10/07 14:50:48;;;;;;;4.63;2.35;;;;;;;;;;4976737;28;20042;-60
2022/10/07 14:53:15;;;;;;;3.80;1.67;;;;;;;;;;4959025;28;20153;-60
2022/10/07 14:55:41;;;;;;;4.53;2.28;;;;;;;;;;4958917;28;20043;-59
2022/10/07 14:58:09;;;;;;;6.07;2.25;;;;;;;;;;4976274;28;20042;-60
2022/10/07 15:00:36;;;;;;;5.82;2.42;;;;;;;;;;4976458;28;20039;-60
2022/10/07 15:03:05;;;;;;;6.15;2.50;;;;;;;;;;4975998;28;20058;-60
2022/10/07 15:05:32;;;;;;;7.80;2.05;;;;;;;;;;4976465;28;20098;-60
2022/10/07 15:07:59;;;;;;;5.40;1.90;;;;;;;;;;4958666;28;20046;-60
2022/10/07 15:10:26;;;;;;;6.65;2.33;;;;;;;;;;4976074;28;20097;-60
2022/10/07 15:12:53;;;;;;;6.22;2.33;;;;;;;;;;4975759;28;20090;-60
2022/10/07 15:15:19;;;;;;;3.60;1.80;;;;;;;;;;4975809;28;20042;-60
2022/10/07 15:17:46;;;;;;;3.08;1.88;;;;;;;;;;4976117;28;20097;-60